Time;durP1;ratioP1;P1;durP2;ratioP2;P2;SDS_P1;SDS_P2;PMS_P1;PMS_P2;Temp;Humidity;BMP_temperature;BMP_pressure;BME280_temperature;BME280_humidity;BME280_pressure;Samples;Min_cycle;Max_cycle;Signal;HPM_P1;HPM_P2
2023/06/01 00:00:46;;;;;;;4.70;2.80;;;;;;;10.31;60.19;100645.46;104047;277;38265;-71
2023/06/01 00:03:41;;;;;;;3.40;2.60;;;;;;;10.36;60.17;100647.91;104029;277;38420;-73
2023/06/01 00:06:15;;;;;;;5.80;2.80;;;;;;;10.42;59.68;100642.66;104080;265;38473;-73
2023/06/01 00:08:50;;;;;;;2.80;2.50;;;;;;;10.48;59.35;100641.22;104019;277;38791;-73
2023/06/01 00:11:27;;;;;;;5.80;2.60;;;;;;;10.52;59.07;100636.38;104068;277;38681;-72
2023/06/01 00:14:02;;;;;;;4.20;2.60;;;;;;;10.54;58.84;100635.78;104042;277;38658;-72
2023/06/01 00:16:37;;;;;;;4.80;2.30;;;;;;;10.56;58.75;100633.11;103909;277;40623;-73
2023/06/01 00:19:16;;;;;;;4.20;2.60;;;;;;;10.56;58.47;100631.54;103934;277;38905;-73
2023/06/01 00:21:53;;;;;;;3.80;2.70;;;;;;;10.57;58.39;100624.71;103947;277;38439;-72
2023/06/01 00:24:32;;;;;;;3.80;2.60;;;;;;;10.56;58.49;100625.80;103922;277;38468;-70
2023/06/01 00:27:08;;;;;;;3.30;2.60;;;;;;;10.55;58.55;100623.20;103977;277;38592;-73
2023/06/01 00:29:43;;;;;;;7.80;2.60;;;;;;;10.53;58.89;100622.41;103317;277;917029;-71
2023/06/01 00:32:21;;;;;;;5.60;2.90;;;;;;;10.51;58.81;100622.81;103988;277;38270;-71
2023/06/01 00:35:01;;;;;;;5.10;2.80;;;;;;;10.50;58.94;100616.91;103952;277;38574;-73
2023/06/01 00:37:37;;;;;;;5.40;3.00;;;;;;;10.49;59.11;100617.67;103811;277;175205;-73
2023/06/01 00:40:14;;;;;;;3.90;2.80;;;;;;;10.44;59.20;100613.10;103790;278;38389;-73
2023/06/01 00:42:50;;;;;;;6.60;2.80;;;;;;;10.42;59.35;100611.98;103963;277;38254;-72
2023/06/01 00:45:24;;;;;;;6.40;3.00;;;;;;;10.39;59.35;100613.45;103983;277;39572;-70
2023/06/01 00:48:01;;;;;;;4.50;2.50;;;;;;;10.37;59.14;100607.58;104035;277;39769;-73
2023/06/01 00:50:35;;;;;;;3.90;2.90;;;;;;;10.37;59.28;100608.13;104025;277;38232;-72
2023/06/01 00:53:18;;;;;;;6.00;2.70;;;;;;;10.35;59.53;100605.23;103974;277;38280;-72
2023/06/01 00:55:55;;;;;;;5.80;3.20;;;;;;;10.32;59.59;100608.47;103940;277;39461;-73
2023/06/01 00:58:34;;;;;;;4.60;2.50;;;;;;;10.29;59.39;100607.84;103951;277;38466;-73
2023/06/01 01:01:22;;;;;;;4.20;2.70;;;;;;;10.29;59.41;100608.73;103831;277;38868;-73
2023/06/01 01:04:05;;;;;;;3.60;2.70;;;;;;;10.27;59.35;100604.80;103853;277;38568;-70
2023/06/01 01:06:56;;;;;;;3.90;2.50;;;;;;;10.25;59.41;100603.08;104019;277;39388;-72
2023/06/01 01:09:43;;;;;;;3.50;2.40;;;;;;;10.25;59.30;100602.58;104051;277;38222;-71
2023/06/01 01:12:24;;;;;;;4.80;2.70;;;;;;;10.24;58.93;100603.13;103990;277;38266;-73
2023/06/01 01:15:08;;;;;;;6.10;3.00;;;;;;;10.22;58.71;100598.83;104002;277;38264;-72
2023/06/01 01:17:45;;;;;;;3.30;2.50;;;;;;;10.20;58.73;100600.27;104039;277;39893;-71
2023/06/01 01:20:24;;;;;;;4.50;2.30;;;;;;;10.19;58.72;100605.90;104053;273;39635;-73
2023/06/01 01:23:16;;;;;;;5.50;2.40;;;;;;;10.18;58.54;100599.12;104043;277;39447;-73
2023/06/01 01:26:14;;;;;;;3.50;2.60;;;;;;;10.17;58.39;100596.02;103998;276;38259;-72
2023/06/01 01:28:54;;;;;;;4.40;2.30;;;;;;;10.18;58.17;100591.42;103941;276;38317;-71
2023/06/01 01:31:28;;;;;;;4.10;2.70;;;;;;;10.20;57.81;100587.55;104048;274;38376;-71
2023/06/01 01:34:05;;;;;;;3.70;2.20;;;;;;;10.23;57.54;100583.61;103989;277;38539;-72
2023/06/01 01:36:40;;;;;;;;;;;;;;;10.24;57.28;100581.52;104041;277;38371;-72
2023/06/01 01:39:25;;;;;;;3.60;2.50;;;;;;;10.21;57.13;100578.30;103994;277;39456;-72
2023/06/01 01:41:59;;;;;;;4.50;2.40;;;;;;;10.20;57.12;100574.45;104042;276;39636;-72
2023/06/01 01:44:40;;;;;;;3.50;2.40;;;;;;;10.19;57.25;100574.51;104019;277;38254;-72
2023/06/01 01:47:21;;;;;;;4.10;2.90;;;;;;;10.18;57.52;100571.58;104062;277;38269;-72
2023/06/01 01:50:03;;;;;;;4.50;2.60;;;;;;;10.18;57.47;100568.26;104048;277;39423;-71
2023/06/01 01:52:43;;;;;;;3.30;2.50;;;;;;;10.19;57.48;100569.27;104042;277;38809;-72
2023/06/01 01:55:18;;;;;;;5.50;2.30;;;;;;;10.18;57.65;100566.52;104094;277;39404;-73
2023/06/01 01:57:55;;;;;;;5.20;2.50;;;;;;;10.17;57.40;100564.29;104024;277;38271;-73
2023/06/01 02:00:30;;;;;;;4.20;3.00;;;;;;;10.20;57.41;100564.38;104077;277;38230;-73
2023/06/01 02:03:04;;;;;;;5.80;2.60;;;;;;;10.20;57.28;100566.46;104044;277;38512;-72
2023/06/01 02:05:43;;;;;;;3.10;2.40;;;;;;;10.18;57.13;100563.03;103921;277;188982;-70
2023/06/01 02:08:18;;;;;;;3.80;2.10;;;;;;;10.16;56.80;100563.95;104013;277;38484;-70
2023/06/01 02:10:56;;;;;;;4.00;2.30;;;;;;;10.14;56.80;100558.81;104007;277;38732;-72
2023/06/01 02:13:33;;;;;;;5.50;2.60;;;;;;;10.11;56.85;100558.02;104030;277;38289;-71
2023/06/01 02:16:11;;;;;;;4.60;2.70;;;;;;;10.09;56.98;100553.04;103820;277;38229;-72
2023/06/01 02:18:50;;;;;;;4.00;2.50;;;;;;;10.06;57.03;100555.58;103983;276;39379;-72
2023/06/01 02:21:26;;;;;;;3.50;2.70;;;;;;;10.02;57.08;100552.73;104020;277;38230;-73
2023/06/01 02:24:04;;;;;;;4.10;2.50;;;;;;;10.00;57.24;100552.48;104008;277;38392;-73
2023/06/01 02:26:40;;;;;;;5.00;2.70;;;;;;;9.97;57.17;100550.65;103806;276;38512;-71
2023/06/01 02:29:19;;;;;;;6.10;3.10;;;;;;;9.94;57.44;100551.11;104011;277;38236;-73
2023/06/01 02:32:03;;;;;;;4.90;2.50;;;;;;;9.91;57.56;100552.77;104123;276;39467;-72
2023/06/01 02:34:46;;;;;;;3.70;2.50;;;;;;;9.90;57.67;100553.15;103950;277;175215;-72
2023/06/01 02:37:22;;;;;;;4.50;2.60;;;;;;;9.89;57.72;100547.26;103845;277;39434;-72
2023/06/01 02:40:10;;;;;;;4.00;2.60;;;;;;;9.88;57.79;100546.95;104087;277;38426;-71
2023/06/01 02:42:51;;;;;;;4.80;2.30;;;;;;;9.86;57.93;100544.55;103999;276;38241;-70
2023/06/01 02:45:25;;;;;;;4.00;2.40;;;;;;;9.86;57.94;100538.63;104043;277;38843;-73
2023/06/01 02:48:00;;;;;;;3.30;2.30;;;;;;;9.88;57.97;100538.05;104024;277;39631;-71
2023/06/01 02:50:37;;;;;;;7.50;2.60;;;;;;;9.91;58.13;100538.13;104050;277;39387;-73
2023/06/01 02:53:13;;;;;;;4.10;2.30;;;;;;;9.93;58.17;100534.92;104011;277;38946;-72
2023/06/01 02:55:48;;;;;;;3.90;2.60;;;;;;;9.97;57.94;100534.27;103990;277;38269;-72
2023/06/01 02:58:23;;;;;;;4.90;2.60;;;;;;;10.02;57.82;100534.97;103973;277;38262;-72
2023/06/01 03:01:00;;;;;;;5.40;2.80;;;;;;;10.07;57.81;100535.48;103968;277;38791;-73
2023/06/01 03:03:41;;;;;;;4.00;2.20;;;;;;;10.12;57.88;100536.72;103965;276;38383;-75
2023/06/01 03:06:17;;;;;;;4.10;2.50;;;;;;;10.17;57.79;100534.81;103910;276;175296;-72
2023/06/01 03:08:51;;;;;;;4.30;3.20;;;;;;;10.24;57.77;100535.11;104035;276;38405;-72
2023/06/01 03:11:26;;;;;;;6.10;2.70;;;;;;;10.32;57.64;100535.39;104058;276;38825;-72
2023/06/01 03:14:04;;;;;;;3.20;2.30;;;;;;;10.40;57.39;100533.38;104011;276;38245;-72
2023/06/01 03:16:39;;;;;;;6.50;2.40;;;;;;;10.47;57.37;100533.30;104078;276;38684;-73
2023/06/01 03:19:17;;;;;;;4.90;2.20;;;;;;;10.54;57.40;100531.13;104048;276;39490;-73
2023/06/01 03:21:51;;;;;;;3.30;2.20;;;;;;;10.60;57.19;100530.05;103831;276;175251;-73
2023/06/01 03:24:32;;;;;;;7.80;3.10;;;;;;;10.70;57.19;100525.15;103916;277;38231;-73
2023/06/01 03:27:08;;;;;;;4.00;2.50;;;;;;;10.79;56.91;100525.86;104121;276;40951;-74
2023/06/01 03:29:43;;;;;;;4.90;2.80;;;;;;;10.89;56.74;100524.30;104087;276;38257;-74
2023/06/01 03:32:20;;;;;;;5.20;2.40;;;;;;;10.99;56.69;100522.34;104089;276;39613;-73
2023/06/01 03:34:55;;;;;;;3.60;2.40;;;;;;;11.18;56.55;100521.26;104050;276;39440;-72
2023/06/01 03:37:33;;;;;;;4.40;2.70;;;;;;;11.64;56.55;100522.80;104070;276;39433;-73
2023/06/01 03:40:12;;;;;;;5.10;2.60;;;;;;;12.36;56.17;100517.20;104018;276;39926;-72
2023/06/01 03:42:48;;;;;;;4.20;2.50;;;;;;;13.33;55.76;100511.83;104002;276;39615;-74
2023/06/01 03:45:22;;;;;;;3.70;2.80;;;;;;;14.40;55.50;100510.41;104075;276;38806;-73
2023/06/01 03:47:57;;;;;;;4.20;2.60;;;;;;;15.47;53.29;100505.70;103906;276;189153;-73
2023/06/01 03:50:33;;;;;;;4.50;2.80;;;;;;;16.52;50.47;100506.48;103845;276;40254;-72
2023/06/01 03:53:08;;;;;;;5.00;2.60;;;;;;;17.47;48.49;100502.49;103480;276;654534;-70
2023/06/01 03:55:47;;;;;;;4.90;2.90;;;;;;;18.45;46.45;100499.73;103970;276;38242;-74
2023/06/01 03:58:27;;;;;;;4.40;2.80;;;;;;;19.42;44.37;100501.72;104029;276;39461;-71
2023/06/01 04:01:05;;;;;;;3.20;2.70;;;;;;;20.27;41.76;100499.28;104024;276;39438;-73
2023/06/01 04:03:39;;;;;;;4.30;3.20;;;;;;;20.95;40.33;100500.56;104058;276;39447;-74
2023/06/01 04:06:17;;;;;;;6.00;3.10;;;;;;;21.63;38.43;100497.60;104125;276;39682;-73
2023/06/01 04:08:58;;;;;;;4.60;3.10;;;;;;;22.28;36.74;100492.52;104156;276;38505;-73
2023/06/01 04:11:36;;;;;;;5.20;2.90;;;;;;;22.86;35.69;100494.45;103931;277;38975;-74
2023/06/01 04:14:14;;;;;;;3.40;2.80;;;;;;;23.28;34.38;100492.50;104096;276;38239;-74
2023/06/01 04:16:52;;;;;;;6.40;3.00;;;;;;;23.48;33.18;100496.77;104043;276;40114;-71
2023/06/01 04:19:27;;;;;;;8.60;4.00;;;;;;;23.11;32.59;100489.35;104072;276;39414;-71
2023/06/01 04:22:04;;;;;;;4.90;3.60;;;;;;;22.44;32.77;100491.48;103817;277;39240;-73
2023/06/01 04:24:38;;;;;;;6.50;3.40;;;;;;;21.71;33.80;100485.66;103853;276;38251;-72
2023/06/01 04:27:15;;;;;;;6.20;3.70;;;;;;;21.04;34.38;100483.02;104079;276;38257;-74
2023/06/01 04:29:53;;;;;;;5.40;3.50;;;;;;;20.49;35.24;100482.33;103863;276;40301;-73
2023/06/01 04:32:32;;;;;;;6.00;3.90;;;;;;;20.00;35.78;100483.45;103990;276;38267;-73
2023/06/01 04:35:12;;;;;;;7.90;3.90;;;;;;;19.51;36.47;100483.73;103853;276;38516;-72
2023/06/01 04:37:46;;;;;;;6.60;4.10;;;;;;;19.07;37.21;100483.92;103805;277;39948;-71
2023/06/01 04:40:22;;;;;;;5.40;3.90;;;;;;;18.77;38.09;100481.98;104064;276;38507;-73
2023/06/01 04:43:06;;;;;;;6.70;4.20;;;;;;;18.61;38.89;100481.83;104126;276;39159;-74
2023/06/01 04:45:43;;;;;;;8.30;4.20;;;;;;;18.34;39.73;100478.58;104056;276;38295;-73
2023/06/01 04:48:21;;;;;;;7.80;4.40;;;;;;;18.16;39.75;100483.48;104056;276;38568;-73
2023/06/01 04:50:58;;;;;;;7.20;4.10;;;;;;;18.07;40.48;100481.81;103988;276;172068;-74
2023/06/01 04:53:34;;;;;;;7.60;3.80;;;;;;;17.98;41.00;100477.63;103189;276;890562;-75
2023/06/01 04:56:10;;;;;;;7.40;3.90;;;;;;;18.20;41.12;100480.23;104134;276;38972;-71
2023/06/01 04:58:47;;;;;;;6.20;3.90;;;;;;;18.95;41.80;100483.48;104093;276;38268;-72
2023/06/01 05:01:29;;;;;;;7.10;4.10;;;;;;;20.22;41.39;100473.23;104064;276;38472;-73
2023/06/01 05:04:07;;;;;;;9.90;3.90;;;;;;;21.60;39.22;100466.57;104069;275;38366;-71
2023/06/01 05:06:44;;;;;;;7.50;3.80;;;;;;;22.78;36.86;100459.38;104045;276;38261;-74
2023/06/01 05:09:20;;;;;;;7.60;4.20;;;;;;;23.75;35.44;100460.08;103949;276;187691;-73
2023/06/01 05:11:56;;;;;;;8.60;4.10;;;;;;;24.70;33.89;100453.14;103842;277;38221;-71
2023/06/01 05:14:31;;;;;;;5.20;4.00;;;;;;;25.57;32.42;100451.27;104021;276;38831;-72
2023/06/01 05:17:11;;;;;;;9.30;4.60;;;;;;;26.33;30.88;100444.50;104086;276;38694;-71
2023/06/01 05:19:45;;;;;;;5.00;3.60;;;;;;;27.02;30.25;100442.84;104046;276;38459;-72
2023/06/01 05:22:20;;;;;;;6.70;4.30;;;;;;;27.44;29.09;100445.73;104094;276;38371;-72
2023/06/01 05:25:03;;;;;;;6.70;4.10;;;;;;;28.03;28.38;100439.81;104068;276;38232;-74
2023/06/01 05:27:40;;;;;;;6.80;4.00;;;;;;;28.49;27.78;100433.40;104068;276;38433;-71
2023/06/01 05:30:20;;;;;;;11.10;4.00;;;;;;;28.81;27.15;100436.23;104077;276;38268;-74
2023/06/01 05:32:59;;;;;;;6.30;4.20;;;;;;;29.20;26.91;100433.41;104023;276;38417;-74
2023/06/01 05:35:32;;;;;;;;;;;;;;;29.44;25.99;100436.69;104166;276;38280;-73
2023/06/01 05:38:10;;;;;;;7.90;3.80;;;;;;;29.57;25.39;100439.31;104020;276;38292;-71
2023/06/01 05:40:48;;;;;;;9.00;4.00;;;;;;;30.17;24.53;100437.45;104069;276;38212;-75
2023/06/01 05:43:23;;;;;;;4.70;3.80;;;;;;;30.49;23.71;100435.34;104075;276;38413;-70
2023/06/01 05:46:00;;;;;;;5.80;3.70;;;;;;;30.81;23.35;100434.85;104096;276;38282;-70
2023/06/01 05:48:40;;;;;;;4.70;3.30;;;;;;;30.89;23.35;100434.27;103832;276;38254;-72
2023/06/01 05:51:18;;;;;;;8.40;3.70;;;;;;;31.01;23.09;100433.38;103844;277;38522;-73
2023/06/01 05:53:53;;;;;;;5.50;3.70;;;;;;;31.10;22.70;100429.76;103827;277;38269;-73
2023/06/01 05:56:31;;;;;;;9.50;3.60;;;;;;;31.46;22.26;100432.33;104052;276;39404;-71
2023/06/01 05:59:06;;;;;;;6.00;3.80;;;;;;;31.73;22.06;100434.54;104074;276;39891;-72
2023/06/01 06:01:44;;;;;;;6.70;3.80;;;;;;;31.95;21.98;100430.73;104034;276;38445;-71
2023/06/01 06:04:18;;;;;;;5.10;3.60;;;;;;;32.01;22.19;100429.55;104053;276;38501;-71
2023/06/01 06:06:59;;;;;;;6.50;3.20;;;;;;;32.10;22.11;100429.41;104051;276;38264;-72
2023/06/01 06:09:37;;;;;;;4.60;3.10;;;;;;;32.21;22.57;100428.36;104030;276;38739;-72
2023/06/01 06:12:16;;;;;;;8.40;3.60;;;;;;;32.33;21.62;100426.79;104061;276;38538;-71
2023/06/01 06:15:01;;;;;;;5.90;3.70;;;;;;;32.69;21.18;100428.05;104091;276;38272;-73
2023/06/01 06:17:37;;;;;;;5.30;3.80;;;;;;;32.84;20.72;100422.20;103271;277;881354;-73
2023/06/01 06:20:15;;;;;;;7.50;3.50;;;;;;;32.91;20.74;100420.66;103938;277;38909;-73
2023/06/01 06:22:57;;;;;;;4.20;3.20;;;;;;;32.99;20.84;100417.27;103820;277;39692;-73
2023/06/01 06:25:33;;;;;;;5.30;3.30;;;;;;;33.13;20.43;100418.61;103927;277;39084;-72
2023/06/01 06:28:11;;;;;;;6.90;3.00;;;;;;;33.39;20.32;100413.33;103792;266;39303;-72
2023/06/01 06:30:52;;;;;;;5.00;3.50;;;;;;;33.58;20.11;100412.14;103868;277;38363;-72
2023/06/01 06:33:30;;;;;;;5.00;3.00;;;;;;;33.70;19.96;100411.29;103948;277;39693;-72
2023/06/01 06:36:04;;;;;;;;;;;;;;;33.91;19.97;100408.55;103905;277;39569;-72
2023/06/01 06:38:40;;;;;;;5.30;3.10;;;;;;;34.12;19.45;100408.72;103879;277;38470;-72
2023/06/01 06:41:14;;;;;;;9.90;3.30;;;;;;;34.27;19.64;100411.81;103892;277;39416;-72
2023/06/01 06:43:49;;;;;;;7.10;3.50;;;;;;;34.50;19.38;100407.65;103899;277;38355;-72
2023/06/01 06:46:23;;;;;;;5.70;3.50;;;;;;;34.79;19.14;100411.13;103834;278;39352;-72
2023/06/01 06:49:00;;;;;;;7.60;3.30;;;;;;;34.92;18.97;100412.34;103870;277;38552;-72
2023/06/01 06:51:38;;;;;;;6.20;3.60;;;;;;;34.86;19.11;100407.92;103921;277;38369;-73
2023/06/01 06:54:15;;;;;;;9.80;3.20;;;;;;;35.15;18.84;100408.98;103921;277;39410;-73
2023/06/01 06:56:50;;;;;;;8.50;3.10;;;;;;;35.51;18.51;100409.89;103972;277;38501;-74
2023/06/01 06:59:27;;;;;;;5.60;3.10;;;;;;;35.64;18.36;100408.08;103902;277;38672;-74
2023/06/01 07:02:05;;;;;;;5.30;3.10;;;;;;;35.80;17.90;100404.55;104016;277;39457;-73
2023/06/01 07:04:44;;;;;;;5.60;2.60;;;;;;;35.69;18.60;100401.59;103930;277;38254;-74
2023/06/01 07:07:21;;;;;;;6.70;2.70;;;;;;;35.74;18.30;100396.77;103875;277;39435;-74
2023/06/01 07:09:56;;;;;;;5.10;2.60;;;;;;;35.81;18.38;100391.47;103978;277;38385;-74
2023/06/01 07:12:32;;;;;;;3.40;2.80;;;;;;;35.83;18.14;100384.87;103783;277;38264;-74
2023/06/01 07:15:12;;;;;;;5.80;2.80;;;;;;;35.90;18.41;100388.50;103960;276;38740;-75
2023/06/01 07:17:48;;;;;;;7.50;3.10;;;;;;;36.40;17.52;100388.60;104063;276;38320;-74
2023/06/01 07:20:24;;;;;;;3.30;2.60;;;;;;;36.60;17.31;100385.20;103931;276;39016;-74
2023/06/01 07:23:02;;;;;;;3.80;2.80;;;;;;;36.73;17.19;100384.44;103965;276;173797;-74
2023/06/01 07:25:38;;;;;;;6.20;2.80;;;;;;;36.74;16.76;100381.28;104115;276;39259;-74
2023/06/01 07:28:15;;;;;;;4.60;2.60;;;;;;;36.71;17.43;100380.61;104042;276;38331;-76
2023/06/01 07:30:53;;;;;;;3.60;2.30;;;;;;;36.70;17.23;100373.98;104046;276;38261;-74
2023/06/01 07:33:28;;;;;;;5.20;2.40;;;;;;;36.98;17.03;100375.17;104050;276;38534;-74
2023/06/01 07:36:04;;;;;;;3.50;2.60;;;;;;;37.19;16.45;100369.60;104104;276;38686;-74
2023/06/01 07:38:44;;;;;;;6.50;2.90;;;;;;;37.27;16.11;100369.16;104095;276;38252;-73
2023/06/01 07:41:19;;;;;;;7.50;3.00;;;;;;;37.37;16.10;100370.25;104098;276;38287;-74
2023/06/01 07:43:54;;;;;;;6.60;2.80;;;;;;;37.39;15.89;100370.35;104103;276;39389;-74
2023/06/01 07:46:29;;;;;;;7.40;2.30;;;;;;;37.32;16.59;100368.14;103995;276;188021;-73
2023/06/01 07:49:13;;;;;;;4.90;2.20;;;;;;;37.24;16.50;100362.58;103906;276;38456;-73
2023/06/01 07:51:53;;;;;;;5.60;2.70;;;;;;;37.31;16.55;100360.38;104108;276;39533;-73
2023/06/01 07:54:30;;;;;;;4.30;2.40;;;;;;;37.46;16.32;100360.55;104117;276;38286;-73
2023/06/01 07:57:10;;;;;;;6.10;2.40;;;;;;;37.60;16.14;100363.03;104130;276;39369;-74
2023/06/01 07:59:45;;;;;;;3.80;1.90;;;;;;;37.61;16.34;100357.98;103840;277;38665;-74
2023/06/01 08:02:20;;;;;;;3.40;2.10;;;;;;;37.68;15.83;100357.15;104073;276;38655;-75
2023/06/01 08:04:56;;;;;;;3.50;2.30;;;;;;;37.81;15.62;100353.32;104002;276;38541;-75
2023/06/01 08:07:35;;;;;;;6.30;2.40;;;;;;;37.85;16.22;100355.81;104008;276;38266;-74
2023/06/01 08:10:14;;;;;;;4.30;2.00;;;;;;;37.82;15.72;100353.63;103846;276;38574;-75
2023/06/01 08:12:49;;;;;;;5.80;2.90;;;;;;;37.90;16.02;100351.83;104015;276;40018;-76
2023/06/01 08:15:28;;;;;;;3.80;2.40;;;;;;;38.12;15.75;100349.39;103809;266;39583;-75
2023/06/01 08:18:06;;;;;;;3.80;2.70;;;;;;;38.34;15.57;100344.41;103849;276;38252;-75
2023/06/01 08:20:40;;;;;;;4.90;2.20;;;;;;;38.39;15.52;100345.77;104010;276;38681;-76
2023/06/01 08:23:16;;;;;;;4.60;2.20;;;;;;;38.53;15.23;100345.13;104025;276;38499;-76
2023/06/01 08:25:50;;;;;;;3.70;2.40;;;;;;;38.50;15.16;100341.96;104126;276;38426;-75
2023/06/01 08:28:26;;;;;;;4.00;1.80;;;;;;;38.63;15.39;100344.25;103830;276;39678;-75
2023/06/01 08:31:03;;;;;;;3.40;2.00;;;;;;;38.80;14.80;100337.92;104019;276;38392;-76
2023/06/01 08:33:46;;;;;;;3.00;2.20;;;;;;;38.86;15.22;100334.42;103901;277;38317;-76
2023/06/01 08:36:21;;;;;;;4.80;2.40;;;;;;;38.82;15.24;100340.58;104105;276;38937;-76
2023/06/01 08:39:00;;;;;;;3.50;2.00;;;;;;;38.84;14.86;100332.84;104074;276;39683;-76
2023/06/01 08:41:48;;;;;;;6.40;2.30;;;;;;;38.88;14.89;100326.96;104022;276;38219;-75
2023/06/01 08:44:23;;;;;;;3.40;1.80;;;;;;;39.00;14.98;100331.27;104062;276;39500;-75
2023/06/01 08:47:03;;;;;;;7.30;1.80;;;;;;;39.03;15.11;100328.21;104052;276;38201;-75
2023/06/01 08:49:41;;;;;;;6.20;2.20;;;;;;;39.02;14.93;100322.66;104019;276;39043;-77
2023/06/01 08:52:21;;;;;;;3.10;2.00;;;;;;;38.92;15.15;100317.73;104063;276;38371;-75
2023/06/01 08:54:59;;;;;;;5.10;2.00;;;;;;;38.95;15.02;100315.48;104039;276;38316;-75
2023/06/01 08:57:35;;;;;;;3.50;2.30;;;;;;;39.01;15.24;100311.48;104020;276;38803;-75
2023/06/01 09:00:15;;;;;;;2.60;1.90;;;;;;;39.08;14.88;100307.81;104038;276;38266;-75
2023/06/01 09:02:54;;;;;;;5.50;2.30;;;;;;;39.05;14.45;100306.41;103842;276;38242;-75
2023/06/01 09:05:28;;;;;;;3.70;2.10;;;;;;;38.78;15.01;100304.04;103928;276;173772;-75
2023/06/01 09:08:06;;;;;;;7.60;2.30;;;;;;;38.58;14.95;100298.58;104048;276;38273;-75
2023/06/01 09:10:41;;;;;;;6.60;2.20;;;;;;;38.23;15.17;100295.70;104031;276;38522;-75
2023/06/01 09:13:16;;;;;;;5.00;2.50;;;;;;;37.89;15.38;100291.78;104037;276;38324;-74
2023/06/01 09:15:59;;;;;;;5.10;2.50;;;;;;;37.47;15.62;100294.45;103888;276;38245;-75
2023/06/01 09:18:41;;;;;;;4.40;2.50;;;;;;;37.02;16.02;100292.78;104041;276;38247;-75
2023/06/01 09:21:18;;;;;;;3.20;2.20;;;;;;;36.68;16.93;100292.17;104095;276;38280;-76
2023/06/01 09:23:59;;;;;;;9.10;2.70;;;;;;;36.26;16.49;100289.70;104098;276;38955;-76
2023/06/01 09:26:33;;;;;;;5.30;2.60;;;;;;;35.71;16.92;100290.45;104096;276;38283;-73
2023/06/01 09:29:09;;;;;;;6.10;2.60;;;;;;;35.24;17.74;100288.55;104060;276;38484;-73
2023/06/01 09:31:46;;;;;;;11.30;3.20;;;;;;;34.83;17.19;100279.54;104085;276;38409;-73
2023/06/01 09:34:24;;;;;;;6.60;2.70;;;;;;;34.27;17.92;100279.52;104036;276;38488;-73
2023/06/01 09:37:02;;;;;;;3.10;2.20;;;;;;;33.80;18.76;100279.67;104035;276;39204;-73
2023/06/01 09:39:38;;;;;;;5.70;2.70;;;;;;;33.46;19.21;100282.02;104044;276;39414;-73
2023/06/01 09:42:17;;;;;;;3.20;2.20;;;;;;;33.20;19.61;100280.87;104081;276;38947;-74
2023/06/01 09:44:54;;;;;;;5.00;2.40;;;;;;;32.95;19.61;100273.25;104014;276;38504;-74
2023/06/01 09:47:30;;;;;;;5.00;2.70;;;;;;;32.83;20.37;100272.85;104061;276;38241;-73
2023/06/01 09:50:12;;;;;;;2.60;2.20;;;;;;;32.76;20.35;100270.00;104014;276;38572;-74
2023/06/01 09:52:47;;;;;;;6.70;2.70;;;;;;;32.54;20.75;100270.44;104030;276;38532;-73
2023/06/01 09:55:21;;;;;;;6.10;2.70;;;;;;;32.39;21.06;100269.06;104023;276;38748;-74
2023/06/01 09:58:01;;;;;;;4.40;2.50;;;;;;;32.26;20.85;100268.09;104083;276;38292;-74
2023/06/01 10:00:37;;;;;;;4.20;2.60;;;;;;;32.11;21.55;100261.74;103848;276;41427;-74
2023/06/01 10:03:12;;;;;;;5.50;2.60;;;;;;;32.07;21.62;100258.70;104119;276;38298;-74
2023/06/01 10:05:47;;;;;;;5.00;2.70;;;;;;;32.01;21.58;100256.61;103855;277;39550;-74
2023/06/01 10:08:22;;;;;;;8.20;2.80;;;;;;;31.94;21.58;100260.28;104037;276;39674;-73
2023/06/01 10:10:56;;;;;;;5.50;2.50;;;;;;;31.82;21.56;100261.91;104101;276;38240;-74
2023/06/01 10:13:33;;;;;;;4.80;2.40;;;;;;;31.70;22.02;100261.00;104122;276;38476;-74
2023/06/01 10:16:07;;;;;;;3.80;2.40;;;;;;;31.55;21.99;100255.94;104089;276;38352;-73
2023/06/01 10:18:44;;;;;;;4.90;2.40;;;;;;;31.29;22.26;100256.52;104074;276;38240;-74
2023/06/01 10:21:21;;;;;;;4.80;2.60;;;;;;;31.08;21.87;100254.46;104053;276;38599;-74
2023/06/01 10:23:56;;;;;;;3.90;2.30;;;;;;;30.97;22.39;100257.11;104088;275;39389;-74
2023/06/01 10:26:31;;;;;;;7.60;3.10;;;;;;;30.96;22.62;100255.14;104077;265;40158;-74
2023/06/01 10:29:05;;;;;;;5.50;2.70;;;;;;;30.93;21.78;100244.98;104046;276;38893;-77
2023/06/01 10:31:40;;;;;;;9.70;2.50;;;;;;;30.75;21.66;100252.52;104165;276;38322;-77
2023/06/01 10:34:15;;;;;;;7.70;2.50;;;;;;;30.59;22.56;100250.50;104040;276;38414;-72
2023/06/01 10:37:18;;;;;;;5.50;2.40;;;;;;;30.50;22.79;100252.33;104087;276;38264;-74
2023/06/01 10:39:53;;;;;;;3.90;2.40;;;;;;;30.48;23.16;100251.72;104020;276;39058;-74
2023/06/01 10:42:53;;;;;;;3.30;2.20;;;;;;;30.45;23.35;100249.54;104091;276;38496;-73
2023/06/01 10:45:45;;;;;;;5.40;2.30;;;;;;;30.42;23.17;100235.56;104048;276;39618;-74
2023/06/01 10:48:19;;;;;;;8.20;2.50;;;;;;;30.39;23.57;100224.28;104032;276;38256;-74
2023/06/01 10:51:21;;;;;;;4.40;2.20;;;;;;;30.40;23.60;100233.52;104061;276;39396;-74
2023/06/01 10:53:57;;;;;;;8.70;2.50;;;;;;;30.40;23.41;100236.05;103851;276;38234;-74
2023/06/01 10:56:34;;;;;;;6.00;2.50;;;;;;;30.36;23.86;100228.10;104005;276;38260;-73
2023/06/01 10:59:17;;;;;;;3.10;2.30;;;;;;;30.29;23.68;100223.84;103793;276;174269;-72
2023/06/01 11:01:51;;;;;;;7.20;2.50;;;;;;;30.23;23.18;100217.55;103957;276;38624;-73
2023/06/01 11:07:44;;;;;;;4.20;2.20;;;;;;;30.09;23.11;100212.98;101820;304;545896;-75
2023/06/01 11:10:47;;;;;;;5.80;2.50;;;;;;;29.99;23.62;100204.95;103095;288;38221;-74
2023/06/01 11:13:22;;;;;;;7.00;2.60;;;;;;;29.99;24.07;100208.33;103094;288;39450;-75
2023/06/01 11:16:32;;;;;;;3.30;2.20;;;;;;;29.95;23.87;100204.09;103253;284;38243;-74
2023/06/01 11:19:08;;;;;;;3.30;2.20;;;;;;;29.85;23.73;100195.31;103361;284;38401;-75
2023/06/01 11:21:44;;;;;;;7.30;2.40;;;;;;;29.81;24.14;100192.88;102940;282;725669;-74
2023/06/01 11:24:24;;;;;;;5.00;2.30;;;;;;;29.81;24.07;100191.08;103681;280;38301;-74
2023/06/01 11:26:59;;;;;;;5.80;2.20;;;;;;;29.75;23.89;100187.80;103700;280;38386;-74
2023/06/01 11:29:34;;;;;;;4.50;2.40;;;;;;;29.73;24.64;100192.55;103646;280;38469;-74
2023/06/01 11:32:11;;;;;;;4.00;2.50;;;;;;;29.67;24.50;100189.15;103778;278;39647;-73
2023/06/01 11:34:48;;;;;;;7.00;2.20;;;;;;;29.64;25.11;100184.30;103785;278;39048;-73
2023/06/01 11:37:28;;;;;;;4.20;2.20;;;;;;;29.58;24.35;100183.77;103754;278;39155;-75
2023/06/01 11:40:14;;;;;;;5.50;2.50;;;;;;;29.44;24.47;100177.02;103763;278;39661;-75
2023/06/01 11:42:50;;;;;;;5.60;2.50;;;;;;;29.36;23.92;100175.69;103843;278;38230;-74
2023/06/01 11:45:28;;;;;;;7.30;3.00;;;;;;;29.25;23.73;100174.13;103837;278;38332;-74
2023/06/01 11:48:13;;;;;;;6.00;2.90;;;;;;;29.21;23.05;100172.16;103794;278;38835;-74
2023/06/01 11:50:54;;;;;;;7.30;2.60;;;;;;;29.07;23.24;100164.20;103830;266;38282;-72
2023/06/01 11:53:29;;;;;;;5.90;2.40;;;;;;;29.02;23.66;100166.80;103835;278;38231;-74
2023/06/01 11:56:06;;;;;;;6.50;2.10;;;;;;;28.94;23.73;100158.08;103851;278;38280;-73
2023/06/01 11:58:45;;;;;;;8.90;3.10;;;;;;;28.83;24.17;100159.87;103853;278;39581;-74
2023/06/01 12:01:20;;;;;;;9.00;2.20;;;;;;;28.78;24.86;100152.79;103892;278;39440;-73
2023/06/01 12:03:58;;;;;;;8.10;2.60;;;;;;;28.75;24.86;100152.49;103823;266;38241;-73
2023/06/01 12:06:32;;;;;;;3.80;2.00;;;;;;;28.73;24.87;100152.09;103805;278;38389;-74
2023/06/01 12:09:07;;;;;;;7.00;2.30;;;;;;;28.65;24.25;100148.02;103788;278;38471;-73
2023/06/01 12:11:42;;;;;;;5.30;2.30;;;;;;;28.56;24.62;100142.46;103669;279;39811;-73
2023/06/01 12:14:17;;;;;;;3.30;2.30;;;;;;;28.50;25.07;100137.86;103759;278;38699;-72
2023/06/01 12:16:58;;;;;;;4.50;2.10;;;;;;;28.46;24.77;100144.89;103678;278;188196;-72
2023/06/01 12:19:45;;;;;;;3.10;1.90;;;;;;;28.41;24.34;100142.36;103757;278;39490;-72